Time;durP1;ratioP1;P1;durP2;ratioP2;P2;SDS_P1;SDS_P2;PMS_P1;PMS_P2;Temp;Humidity;BMP_temperature;BMP_pressure;BME280_temperature;BME280_humidity;BME280_pressure;Samples;Min_cycle;Max_cycle;Signal;HPM_P1;HPM_P2
2021/09/06 00:00:49;;;;;;;13.05;5.60;;;15.30;99.90;;;;;;4984980;28;20434;-69
2021/09/06 00:03:14;;;;;;;13.27;5.32;;;15.30;99.90;;;;;;5003031;28;20045;-69
2021/09/06 00:05:40;;;;;;;13.80;5.20;;;15.20;99.90;;;;;;4982968;28;20295;-68
2021/09/06 00:08:06;;;;;;;14.70;4.90;;;15.20;99.90;;;;;;5003450;28;20092;-69
2021/09/06 00:10:54;;;;;;;14.15;5.88;;;15.20;99.90;;;;;;5000005;28;20558;-69
2021/09/06 00:13:20;;;;;;;11.15;4.97;;;15.20;99.90;;;;;;5000920;28;20034;-69
2021/09/06 00:15:45;;;;;;;11.00;4.28;;;15.20;99.90;;;;;;4984251;28;20128;-70
2021/09/06 00:18:11;;;;;;;9.45;4.85;;;15.20;99.90;;;;;;5000974;28;20046;-69
2021/09/06 00:20:38;;;;;;;12.60;5.35;;;15.30;99.90;;;;;;5003230;28;20072;-69
2021/09/06 00:23:04;;;;;;;11.48;5.88;;;15.20;99.90;;;;;;4982522;28;20038;-69
2021/09/06 00:25:30;;;;;;;10.80;5.70;;;15.10;99.90;;;;;;5002840;28;20033;-69
2021/09/06 00:27:56;;;;;;;11.15;5.15;;;15.10;99.90;;;;;;4982938;28;20038;-69
2021/09/06 00:30:21;;;;;;;12.68;5.30;;;15.00;99.90;;;;;;5002741;28;20050;-70
2021/09/06 00:32:47;;;;;;;12.15;5.53;;;15.00;99.90;;;;;;4984016;28;20030;-69
2021/09/06 00:35:13;;;;;;;11.43;5.90;;;15.00;99.90;;;;;;5001288;28;20514;-69
2021/09/06 00:37:38;;;;;;;12.95;5.68;;;14.90;99.90;;;;;;5002592;28;20026;-69
2021/09/06 00:40:05;;;;;;;14.25;5.75;;;14.90;99.90;;;;;;5001175;28;20046;-69
2021/09/06 00:42:30;;;;;;;11.32;5.07;;;14.80;99.90;;;;;;4998924;28;20045;-70
2021/09/06 00:44:56;;;;;;;14.52;6.43;;;14.80;99.90;;;;;;5002340;28;20038;-69
2021/09/06 00:47:21;;;;;;;9.88;4.45;;;14.80;99.90;;;;;;5000474;28;20038;-69
2021/09/06 00:49:47;;;;;;;14.20;5.05;;;14.70;99.90;;;;;;5000874;28;20113;-69
2021/09/06 00:52:12;;;;;;;13.20;5.18;;;14.70;99.90;;;;;;4984286;28;20064;-69
2021/09/06 00:54:38;;;;;;;11.88;5.25;;;14.60;99.90;;;;;;4999814;28;20096;-69
2021/09/06 00:57:04;;;;;;;15.13;5.30;;;14.60;99.90;;;;;;4990210;28;20042;-69
2021/09/06 00:59:30;;;;;;;12.20;5.50;;;14.60;99.90;;;;;;5001596;28;20497;-69
2021/09/06 01:01:55;;;;;;;12.23;4.90;;;14.60;99.90;;;;;;5005723;28;20083;-69
2021/09/06 01:04:21;;;;;;;10.77;5.30;;;14.50;99.90;;;;;;5002349;28;20044;-69
2021/09/06 01:06:46;;;;;;;15.90;5.28;;;14.50;99.90;;;;;;5003633;28;20023;-69
2021/09/06 01:09:12;;;;;;;13.93;5.93;;;14.40;99.90;;;;;;5006119;28;20486;-69
2021/09/06 01:11:37;;;;;;;10.32;5.32;;;14.40;99.90;;;;;;4987285;28;20053;-69
2021/09/06 01:14:03;;;;;;;14.25;5.53;;;14.40;99.90;;;;;;5003154;28;20092;-69
2021/09/06 01:16:29;;;;;;;14.27;6.60;;;14.30;99.90;;;;;;4986220;28;20117;-69
2021/09/06 01:18:55;;;;;;;13.38;5.57;;;14.40;99.90;;;;;;5000650;28;20028;-69
2021/09/06 01:21:20;;;;;;;18.95;5.95;;;14.40;99.90;;;;;;4986582;28;20094;-69
2021/09/06 01:23:46;;;;;;;12.88;5.43;;;14.30;99.90;;;;;;4990484;28;20042;-69
2021/09/06 01:26:12;;;;;;;13.02;6.03;;;14.40;99.90;;;;;;4994190;28;20329;-69
2021/09/06 01:28:37;;;;;;;13.98;5.72;;;14.40;99.90;;;;;;4985986;28;20474;-69
2021/09/06 01:31:03;;;;;;;14.63;6.78;;;14.40;99.90;;;;;;5010452;28;20394;-68
2021/09/06 01:33:29;;;;;;;10.50;5.63;;;14.40;99.90;;;;;;5002409;28;20026;-69
2021/09/06 01:35:55;;;;;;;11.70;5.18;;;14.40;99.90;;;;;;4998820;28;20049;-69
2021/09/06 01:38:20;;;;;;;14.18;5.90;;;14.40;99.90;;;;;;5001423;28;20046;-69
2021/09/06 01:40:46;;;;;;;15.98;5.93;;;14.40;99.90;;;;;;4999528;28;20065;-69
2021/09/06 01:43:12;;;;;;;15.23;6.68;;;14.30;99.90;;;;;;4999755;28;20038;-69
2021/09/06 01:45:37;;;;;;;15.20;6.75;;;14.20;99.90;;;;;;5001196;28;20401;-69
2021/09/06 01:48:03;;;;;;;11.73;5.45;;;14.20;99.90;;;;;;4998796;28;20093;-69
2021/09/06 01:50:29;;;;;;;12.38;5.38;;;14.20;99.90;;;;;;5002276;28;20042;-69
2021/09/06 01:52:54;;;;;;;11.63;5.95;;;14.10;99.90;;;;;;4981372;28;20048;-69
2021/09/06 01:55:20;;;;;;;11.93;6.05;;;14.10;99.90;;;;;;4984018;28;20484;-69
2021/09/06 01:57:46;;;;;;;12.70;6.00;;;14.10;99.90;;;;;;5002628;28;20030;-69
2021/09/06 02:00:12;;;;;;;12.27;5.78;;;14.10;99.90;;;;;;4999580;28;20073;-69
2021/09/06 02:02:38;;;;;;;12.07;6.72;;;14.10;99.90;;;;;;4999860;28;20085;-69
2021/09/06 02:05:05;;;;;;;14.50;5.70;;;14.10;99.90;;;;;;5000966;28;20046;-69
2021/09/06 02:07:30;;;;;;;15.15;5.28;;;14.10;99.90;;;;;;4998866;28;20545;-69
2021/09/06 02:09:56;;;;;;;14.32;6.13;;;14.00;99.90;;;;;;5001332;28;20038;-69
2021/09/06 02:12:22;;;;;;;13.25;5.97;;;14.00;99.90;;;;;;4981223;28;20034;-69
2021/09/06 02:14:47;;;;;;;12.43;5.85;;;13.90;99.90;;;;;;5000618;28;20038;-69
2021/09/06 02:17:13;;;;;;;15.52;6.13;;;13.90;99.90;;;;;;4999470;28;20034;-69
2021/09/06 02:19:38;;;;;;;16.38;6.70;;;13.90;99.90;;;;;;4981942;28;20138;-69
2021/09/06 02:22:04;;;;;;;15.02;6.80;;;14.00;99.90;;;;;;5000543;28;20062;-69
2021/09/06 02:24:30;;;;;;;14.18;6.22;;;14.00;99.90;;;;;;4997882;28;20034;-69
2021/09/06 02:26:55;;;;;;;12.65;6.10;;;14.00;99.90;;;;;;4999861;28;20556;-69
2021/09/06 02:29:21;;;;;;;10.70;5.30;;;14.00;99.90;;;;;;4981072;28;20100;-69
2021/09/06 02:31:46;;;;;;;13.43;5.43;;;13.90;99.90;;;;;;5000763;28;20401;-71
2021/09/06 02:34:12;;;;;;;11.57;5.82;;;13.90;99.90;;;;;;4999740;28;20038;-69
2021/09/06 02:36:38;;;;;;;10.95;5.30;;;13.90;99.90;;;;;;4999192;28;20034;-69
2021/09/06 02:39:04;;;;;;;13.38;5.70;;;13.80;99.90;;;;;;5000853;28;20042;-69
2021/09/06 02:41:30;;;;;;;9.90;5.15;;;13.70;99.90;;;;;;5004856;28;20035;-69
2021/09/06 02:43:56;;;;;;;15.73;5.32;;;13.70;99.90;;;;;;5001011;28;20048;-69
2021/09/06 02:46:21;;;;;;;16.10;6.28;;;13.70;99.90;;;;;;4980676;28;20041;-69
2021/09/06 02:48:47;;;;;;;13.43;5.00;;;13.60;99.90;;;;;;5001209;28;20058;-69
2021/09/06 02:51:13;;;;;;;13.48;6.40;;;13.60;99.90;;;;;;4981668;28;20120;-69
2021/09/06 02:53:38;;;;;;;14.93;5.93;;;13.60;99.90;;;;;;4981796;28;20046;-69
2021/09/06 02:56:04;;;;;;;13.30;6.05;;;13.50;99.90;;;;;;5002788;28;20088;-69
2021/09/06 02:58:30;;;;;;;17.10;6.57;;;13.50;99.90;;;;;;4998587;28;20034;-69
2021/09/06 03:00:55;;;;;;;13.75;5.35;;;13.50;99.90;;;;;;5001515;28;20048;-69
2021/09/06 03:03:21;;;;;;;11.68;5.43;;;13.50;99.90;;;;;;4980136;28;20073;-69
2021/09/06 03:05:47;;;;;;;16.88;6.50;;;13.50;99.90;;;;;;4982860;28;20654;-69
2021/09/06 03:08:12;;;;;;;13.10;5.30;;;13.50;99.90;;;;;;4998713;28;20049;-69
2021/09/06 03:10:38;;;;;;;12.38;5.63;;;13.50;99.90;;;;;;4999833;28;20502;-69
2021/09/06 03:13:04;;;;;;;12.50;5.85;;;13.40;99.90;;;;;;5003876;28;20038;-69
2021/09/06 03:15:29;;;;;;;14.07;5.63;;;13.40;99.90;;;;;;5002013;28;20539;-69
2021/09/06 03:17:56;;;;;;;16.80;6.20;;;13.40;99.90;;;;;;5004794;28;20040;-69
2021/09/06 03:20:22;;;;;;;12.77;5.55;;;13.40;99.90;;;;;;4987071;28;20180;-69
2021/09/06 03:22:47;;;;;;;13.82;5.88;;;13.40;99.90;;;;;;5001605;28;20121;-69
2021/09/06 03:25:13;;;;;;;16.77;5.95;;;13.30;99.90;;;;;;5003646;28;20039;-69
2021/09/06 03:27:39;;;;;;;15.35;5.53;;;13.30;99.90;;;;;;5003207;28;20037;-69
2021/09/06 03:30:05;;;;;;;13.68;6.13;;;13.30;99.90;;;;;;5002470;28;20053;-69
2021/09/06 03:32:31;;;;;;;11.40;5.55;;;13.30;99.90;;;;;;5004142;28;20096;-69
2021/09/06 03:34:56;;;;;;;14.05;5.68;;;13.20;99.90;;;;;;5001630;28;20034;-69
2021/09/06 03:37:22;;;;;;;11.98;5.50;;;13.20;99.90;;;;;;5003790;28;20032;-69
2021/09/06 03:39:47;;;;;;;13.70;6.13;;;13.20;99.90;;;;;;5008110;28;20026;-69
2021/09/06 03:42:13;;;;;;;14.27;5.55;;;13.20;99.90;;;;;;5001125;28;20041;-69
2021/09/06 03:44:39;;;;;;;11.65;5.47;;;13.20;99.90;;;;;;4985397;28;20129;-69
2021/09/06 03:47:04;;;;;;;12.77;5.50;;;13.10;99.90;;;;;;5002917;28;20046;-69
2021/09/06 03:49:30;;;;;;;12.38;6.18;;;13.10;99.90;;;;;;4983876;28;20117;-69
2021/09/06 03:51:55;;;;;;;16.95;5.95;;;13.10;99.90;;;;;;5003536;28;20041;-69
2021/09/06 03:54:21;;;;;;;10.77;5.32;;;13.10;99.90;;;;;;4983328;28;20040;-69
2021/09/06 03:56:47;;;;;;;15.20;5.53;;;13.10;99.90;;;;;;5010553;28;20129;-69
2021/09/06 03:59:12;;;;;;;11.38;5.55;;;13.10;99.90;;;;;;5003144;28;20069;-69
2021/09/06 04:01:38;;;;;;;14.82;5.90;;;13.00;99.90;;;;;;5001855;28;20043;-69
2021/09/06 04:04:03;;;;;;;15.70;6.50;;;13.00;99.90;;;;;;5002171;28;20405;-69
2021/09/06 04:06:29;;;;;;;14.20;6.50;;;13.00;99.90;;;;;;5002183;28;20057;-69
2021/09/06 04:08:55;;;;;;;12.85;5.80;;;13.00;99.90;;;;;;4983669;28;20045;-69
2021/09/06 04:11:21;;;;;;;12.50;5.60;;;13.00;99.90;;;;;;5000554;28;20026;-68
2021/09/06 04:13:47;;;;;;;15.23;6.97;;;12.90;99.90;;;;;;5003624;28;20060;-68
2021/09/06 04:16:12;;;;;;;11.73;5.20;;;13.00;99.90;;;;;;5002723;28;20038;-69
2021/09/06 04:18:38;;;;;;;13.23;6.05;;;12.90;99.90;;;;;;4984148;28;20038;-69
2021/09/06 04:21:05;;;;;;;13.35;6.18;;;12.90;99.90;;;;;;4984314;28;20073;-69
2021/09/06 04:23:31;;;;;;;12.93;5.72;;;12.90;99.90;;;;;;5000720;28;20034;-69
2021/09/06 04:25:56;;;;;;;11.75;5.00;;;12.90;99.90;;;;;;5000341;28;20034;-69
2021/09/06 04:28:22;;;;;;;11.82;6.03;;;12.90;99.90;;;;;;5002756;28;20101;-68
2021/09/06 04:30:48;;;;;;;12.48;5.95;;;12.90;99.90;;;;;;5000548;28;20033;-69
2021/09/06 04:33:13;;;;;;;13.77;5.60;;;12.80;99.90;;;;;;4985367;28;20045;-69
2021/09/06 04:35:39;;;;;;;13.55;6.68;;;12.80;99.90;;;;;;5000296;28;20029;-70
2021/09/06 04:38:04;;;;;;;15.65;6.00;;;12.80;99.90;;;;;;5001686;28;20530;-69
2021/09/06 04:40:30;;;;;;;16.00;6.43;;;12.80;99.90;;;;;;5005904;28;20030;-69
2021/09/06 04:42:56;;;;;;;14.90;7.00;;;12.80;99.90;;;;;;5002263;28;20038;-69
2021/09/06 04:45:21;;;;;;;12.57;6.30;;;12.80;99.90;;;;;;4999679;28;20367;-69
2021/09/06 04:47:47;;;;;;;12.57;5.90;;;12.80;99.90;;;;;;4985340;28;20026;-69
2021/09/06 04:50:13;;;;;;;15.95;6.55;;;12.70;99.90;;;;;;5000003;28;20037;-69
2021/09/06 04:52:38;;;;;;;15.32;6.40;;;12.70;99.90;;;;;;4983774;28;20038;-70
2021/09/06 04:55:04;;;;;;;16.77;7.00;;;12.70;99.90;;;;;;5000995;28;20048;-71
2021/09/06 04:57:30;;;;;;;13.25;6.05;;;12.70;99.90;;;;;;5001075;28;20044;-71
2021/09/06 04:59:55;;;;;;;14.70;7.07;;;12.70;99.90;;;;;;4984458;28;20084;-70
2021/09/06 05:02:21;;;;;;;16.35;7.47;;;12.70;99.90;;;;;;4998678;28;20035;-72
2021/09/06 05:04:46;;;;;;;12.95;5.80;;;12.70;99.90;;;;;;5002244;28;20034;-71
2021/09/06 05:07:12;;;;;;;13.82;6.43;;;12.70;99.90;;;;;;4999342;28;20121;-71
2021/09/06 05:09:38;;;;;;;14.40;6.13;;;12.70;99.90;;;;;;5000725;28;20092;-71
2021/09/06 05:12:03;;;;;;;11.88;5.88;;;12.60;99.90;;;;;;4983100;28;20058;-71
2021/09/06 05:14:29;;;;;;;15.10;6.35;;;12.60;99.90;;;;;;4999463;28;20030;-71
2021/09/06 05:16:55;;;;;;;13.25;6.18;;;12.60;99.90;;;;;;4983545;28;20037;-71
2021/09/06 05:19:21;;;;;;;14.77;6.53;;;12.70;99.90;;;;;;4998963;28;20035;-71
2021/09/06 05:21:47;;;;;;;19.30;6.57;;;12.70;99.90;;;;;;4984489;28;20034;-71
2021/09/06 05:24:12;;;;;;;15.80;6.32;;;12.70;99.90;;;;;;4980996;28;20038;-71
2021/09/06 05:26:38;;;;;;;20.13;6.65;;;12.70;99.90;;;;;;4982994;28;20513;-72
2021/09/06 05:29:03;;;;;;;16.85;6.75;;;12.80;99.90;;;;;;4999933;28;20042;-71
2021/09/06 05:31:29;;;;;;;12.60;5.90;;;12.70;99.90;;;;;;4982212;28;20027;-69
2021/09/06 05:33:54;;;;;;;14.95;6.18;;;12.80;99.90;;;;;;4983506;28;20030;-69
2021/09/06 05:36:20;;;;;;;15.30;6.13;;;12.80;99.90;;;;;;4999106;28;20065;-69
2021/09/06 05:38:46;;;;;;;16.55;6.10;;;12.80;99.90;;;;;;4984605;28;20092;-69
2021/09/06 05:41:15;;;;;;;14.55;6.07;;;12.80;99.90;;;;;;5003317;28;20683;-69
2021/09/06 05:43:41;;;;;;;13.60;6.13;;;12.80;99.90;;;;;;5001172;28;20083;-69
2021/09/06 05:46:06;;;;;;;17.95;6.47;;;12.90;99.90;;;;;;4982117;28;20096;-69
2021/09/06 05:48:32;;;;;;;17.83;6.75;;;12.90;99.90;;;;;;4982609;28;20065;-69
2021/09/06 05:50:57;;;;;;;18.67;6.78;;;12.90;99.90;;;;;;5000837;28;20127;-69
2021/09/06 05:53:23;;;;;;;25.80;6.78;;;13.00;99.90;;;;;;4999399;28;20068;-68
2021/09/06 05:55:49;;;;;;;16.17;6.85;;;13.10;99.90;;;;;;4983884;28;20033;-69
2021/09/06 05:58:14;;;;;;;13.57;6.80;;;13.20;99.90;;;;;;4998884;28;20380;-69
2021/09/06 06:00:40;;;;;;;15.50;6.47;;;13.30;99.90;;;;;;5001477;28;20509;-69
2021/09/06 06:03:05;;;;;;;16.58;7.55;;;13.40;99.90;;;;;;4983825;28;20050;-69
2021/09/06 06:05:31;;;;;;;16.13;7.18;;;13.60;99.90;;;;;;5001384;28;20030;-70
2021/09/06 06:07:57;;;;;;;11.73;6.43;;;13.70;99.90;;;;;;4987096;28;20851;-69
2021/09/06 06:10:22;;;;;;;14.02;6.13;;;13.90;99.90;;;;;;4983580;28;20506;-69
2021/09/06 06:12:48;;;;;;;12.50;5.82;;;14.20;99.90;;;;;;5000450;28;20038;-69
2021/09/06 06:15:13;;;;;;;16.65;6.53;;;14.50;99.90;;;;;;4981394;28;20034;-70
2021/09/06 06:17:42;;;;;;;12.07;5.68;;;15.00;99.90;;;;;;5001497;28;20036;-69
2021/09/06 06:20:08;;;;;;;12.82;5.57;;;15.40;99.90;;;;;;5000584;28;20030;-69
2021/09/06 06:22:34;;;;;;;18.80;6.05;;;15.90;99.90;;;;;;5001578;28;20498;-69
2021/09/06 06:25:00;;;;;;;17.08;5.30;;;16.50;99.90;;;;;;4999964;28;20081;-70
2021/09/06 06:27:25;;;;;;;28.83;6.20;;;16.90;99.90;;;;;;5000087;28;20042;-69
2021/09/06 06:29:51;;;;;;;22.08;5.80;;;17.20;99.90;;;;;;5000851;28;20521;-69
2021/09/06 06:32:16;;;;;;;19.67;5.60;;;17.40;99.90;;;;;;4998435;28;20035;-71
2021/09/06 06:34:42;;;;;;;28.42;6.78;;;17.50;99.90;;;;;;5000446;28;20049;-71
2021/09/06 06:37:08;;;;;;;17.23;7.70;;;17.60;99.90;;;;;;5004633;28;20470;-71
2021/09/06 06:39:33;;;;;;;19.70;7.25;;;17.90;99.90;;;;;;5002357;28;20144;-71
2021/09/06 06:41:59;;;;;;;19.75;7.43;;;18.40;99.90;;;;;;4997898;28;20061;-71
2021/09/06 06:44:25;;;;;;;19.70;7.85;;;19.00;99.90;;;;;;4980999;28;20169;-69
2021/09/06 06:46:50;;;;;;;15.68;6.45;;;19.40;99.90;;;;;;4983494;28;20088;-69
2021/09/06 06:49:16;;;;;;;12.00;6.22;;;19.70;99.90;;;;;;5001340;28;20034;-69
2021/09/06 06:51:42;;;;;;;16.88;6.93;;;20.00;99.90;;;;;;5004147;28;20034;-70
2021/09/06 06:54:08;;;;;;;14.30;6.93;;;20.10;99.90;;;;;;4983465;28;20034;-70
2021/09/06 06:56:34;;;;;;;15.50;6.72;;;20.10;99.90;;;;;;5003248;28;20076;-71
2021/09/06 06:58:59;;;;;;;19.60;7.68;;;20.00;99.90;;;;;;5001719;28;20037;-71
2021/09/06 07:01:25;;;;;;;14.93;7.05;;;19.70;99.90;;;;;;5002267;28;20035;-71
2021/09/06 07:03:51;;;;;;;15.18;6.85;;;19.40;99.90;;;;;;5002611;28;20034;-71
2021/09/06 07:06:16;;;;;;;15.32;6.85;;;19.30;99.90;;;;;;5001602;28;20069;-69
2021/09/06 07:08:42;;;;;;;17.92;6.68;;;19.10;99.90;;;;;;5010276;28;20022;-69
2021/09/06 07:11:08;;;;;;;13.75;7.20;;;19.00;99.90;;;;;;5017263;28;20057;-69
2021/09/06 07:13:33;;;;;;;12.52;6.45;;;18.90;99.90;;;;;;5013538;28;20534;-69
2021/09/06 07:15:59;;;;;;;17.23;7.25;;;18.70;99.90;;;;;;5000501;28;20058;-69
2021/09/06 07:18:24;;;;;;;17.23;7.60;;;18.60;99.90;;;;;;5004963;28;20056;-69
2021/09/06 07:20:50;;;;;;;14.60;6.65;;;18.60;99.90;;;;;;5004611;28;20027;-69
2021/09/06 07:23:16;;;;;;;16.55;7.35;;;18.60;99.90;;;;;;4993980;28;20093;-69
2021/09/06 07:25:41;;;;;;;18.70;7.50;;;18.50;99.90;;;;;;5018735;28;20065;-68
2021/09/06 07:28:07;;;;;;;16.10;7.28;;;18.60;99.90;;;;;;5022022;28;20141;-70
2021/09/06 07:30:33;;;;;;;14.95;7.15;;;18.70;99.90;;;;;;5018864;28;20041;-69
2021/09/06 07:33:00;;;;;;;20.67;7.45;;;18.60;99.90;;;;;;5002273;28;20108;-69
2021/09/06 07:35:26;;;;;;;22.85;8.35;;;18.60;99.90;;;;;;5001078;28;20092;-69
2021/09/06 07:37:51;;;;;;;17.85;5.85;;;18.60;99.90;;;;;;5002110;28;20038;-69
2021/09/06 07:40:18;;;;;;;11.75;6.03;;;18.70;99.90;;;;;;4988181;28;20037;-69
2021/09/06 07:42:43;;;;;;;18.05;7.45;;;18.70;99.90;;;;;;5003652;28;20068;-69
2021/09/06 07:45:10;;;;;;;22.27;7.65;;;18.70;99.90;;;;;;5000110;28;20061;-69
2021/09/06 07:47:36;;;;;;;15.23;6.75;;;18.70;99.90;;;;;;5000466;28;20082;-69
2021/09/06 07:50:05;;;;;;;21.15;7.38;;;18.70;99.90;;;;;;5003425;28;20030;-69
2021/09/06 07:52:30;;;;;;;21.63;7.38;;;18.70;99.90;;;;;;5001210;28;20039;-69
2021/09/06 07:54:56;;;;;;;15.98;7.05;;;18.70;99.90;;;;;;5002189;28;20039;-69
2021/09/06 07:57:21;;;;;;;15.95;6.93;;;18.70;99.90;;;;;;4984086;28;20117;-69
2021/09/06 07:59:47;;;;;;;15.93;6.20;;;18.80;99.90;;;;;;5001290;28;20049;-69
2021/09/06 08:02:13;;;;;;;18.20;6.60;;;18.90;99.90;;;;;;4985601;28;20376;-69
2021/09/06 08:04:38;;;;;;;12.02;5.95;;;19.10;99.90;;;;;;4982810;28;20130;-68
2021/09/06 08:07:05;;;;;;;16.95;7.03;;;19.20;99.90;;;;;;5002971;28;20450;-68
2021/09/06 08:09:30;;;;;;;20.58;7.85;;;19.40;99.90;;;;;;5000676;28;20030;-71
2021/09/06 08:11:56;;;;;;;14.60;6.30;;;19.50;99.90;;;;;;5006246;28;20650;-71
2021/09/06 08:14:27;;;;;;;15.23;6.05;;;19.60;99.90;;;;;;4983264;28;20033;-71
2021/09/06 08:16:53;;;;;;;17.35;6.20;;;19.70;99.90;;;;;;5001101;28;20805;-71
2021/09/06 08:19:19;;;;;;;14.88;5.95;;;19.80;99.90;;;;;;5001082;28;20059;-71
2021/09/06 08:21:44;;;;;;;13.48;6.32;;;19.90;99.90;;;;;;5000421;28;20117;-71
2021/09/06 08:24:11;;;;;;;15.10;6.57;;;20.00;99.90;;;;;;5002363;28;20406;-72
2021/09/06 08:26:37;;;;;;;16.80;6.28;;;20.10;99.90;;;;;;4999208;28;20049;-71
2021/09/06 08:29:03;;;;;;;15.05;6.38;;;20.20;99.90;;;;;;4984628;28;20053;-71
2021/09/06 08:31:30;;;;;;;16.77;7.07;;;20.20;99.90;;;;;;4999930;28;20092;-71
2021/09/06 08:33:56;;;;;;;14.23;7.28;;;20.20;99.90;;;;;;5001765;28;20057;-71
2021/09/06 08:36:22;;;;;;;13.13;6.25;;;20.30;99.90;;;;;;4999838;28;20034;-71
2021/09/06 08:38:47;;;;;;;13.68;5.38;;;20.30;99.90;;;;;;4983069;28;20030;-71
2021/09/06 08:41:13;;;;;;;17.30;5.85;;;20.40;99.90;;;;;;5002609;28;20042;-71
2021/09/06 08:43:38;;;;;;;11.98;5.97;;;20.40;99.90;;;;;;5001541;28;20510;-71
2021/09/06 08:46:04;;;;;;;15.13;6.95;;;20.60;99.90;;;;;;4997914;28;20525;-72
2021/09/06 08:48:30;;;;;;;10.32;5.60;;;20.70;99.90;;;;;;5002042;28;20513;-71
2021/09/06 08:50:55;;;;;;;12.70;5.72;;;20.70;99.90;;;;;;4999835;28;20439;-71
2021/09/06 08:53:22;;;;;;;13.98;5.55;;;20.80;99.90;;;;;;4982668;28;20054;-71
2021/09/06 08:55:48;;;;;;;9.57;5.38;;;20.80;99.90;;;;;;5000294;28;20406;-71
2021/09/06 08:58:16;;;;;;;10.55;4.65;;;20.90;99.90;;;;;;4999051;28;20406;-71
2021/09/06 09:00:48;;;;;;;10.70;4.95;;;20.90;99.90;;;;;;5001459;28;20026;-71
2021/09/06 09:03:14;;;;;;;12.52;6.10;;;21.10;99.90;;;;;;4999010;28;20038;-71
2021/09/06 09:06:12;;;;;;;13.63;6.30;;;21.10;99.90;;;;;;5001862;28;20554;-71
2021/09/06 09:08:38;;;;;;;11.77;5.50;;;21.10;99.90;;;;;;4998121;28;20030;-71
2021/09/06 09:11:06;;;;;;;13.65;6.57;;;21.30;99.90;;;;;;5005450;28;20038;-71
2021/09/06 09:13:34;;;;;;;10.05;4.80;;;21.40;99.90;;;;;;4980243;28;20030;-71
2021/09/06 09:16:00;;;;;;;11.35;4.68;;;21.40;99.90;;;;;;5001374;28;20516;-71
2021/09/06 09:18:30;;;;;;;10.43;4.60;;;21.50;99.90;;;;;;4998645;28;20042;-69
2021/09/06 09:21:14;;;;;;;13.05;5.63;;;21.50;99.90;;;;;;4983863;28;20049;-68
2021/09/06 09:23:49;;;;;;;7.53;4.45;;;21.60;99.90;;;;;;4998302;28;20566;-71
2021/09/06 09:26:15;;;;;;;14.60;5.88;;;21.70;99.90;;;;;;4982654;28;20046;-71
2021/09/06 09:28:43;;;;;;;10.75;5.53;;;21.80;99.90;;;;;;4998545;28;20053;-71
2021/09/06 09:31:16;;;;;;;16.38;5.72;;;21.90;99.90;;;;;;4983513;28;20034;-71
2021/09/06 09:33:47;;;;;;;10.93;5.07;;;21.90;99.90;;;;;;4980762;28;20057;-71
2021/09/06 09:36:14;;;;;;;10.10;4.53;;;22.00;99.90;;;;;;5000072;28;20092;-71
2021/09/06 09:38:40;;;;;;;10.63;4.57;;;22.10;99.90;;;;;;4998412;28;20050;-71
2021/09/06 09:41:16;;;;;;;8.68;4.70;;;22.10;99.90;;;;;;5001714;28;20070;-71
2021/09/06 09:43:43;;;;;;;9.50;4.75;;;22.30;99.90;;;;;;4999746;28;20030;-71
2021/09/06 09:46:09;;;;;;;10.93;4.78;;;22.40;99.90;;;;;;4997911;28;20060;-71
2021/09/06 09:48:34;;;;;;;12.82;5.07;;;22.40;99.90;;;;;;5000897;28;20375;-71
2021/09/06 09:51:01;;;;;;;12.15;4.32;;;22.50;99.90;;;;;;4997989;28;20040;-71
2021/09/06 09:53:26;;;;;;;13.82;4.75;;;22.50;99.90;;;;;;5000405;28;20088;-71
2021/09/06 09:55:52;;;;;;;9.48;4.20;;;22.60;99.90;;;;;;4980893;28;20463;-71
2021/09/06 09:58:18;;;;;;;6.55;3.70;;;22.70;99.90;;;;;;4999845;28;20041;-71
2021/09/06 10:00:47;;;;;;;11.52;4.00;;;22.70;99.90;;;;;;4981812;28;20077;-71
2021/09/06 10:03:13;;;;;;;10.43;4.35;;;22.80;99.90;;;;;;4998899;28;20445;-71
2021/09/06 10:05:41;;;;;;;10.70;4.15;;;22.80;99.90;;;;;;4999737;28;20037;-71
2021/09/06 10:08:15;;;;;;;6.45;3.85;;;22.90;99.90;;;;;;4998193;28;20066;-72
2021/09/06 10:10:42;;;;;;;13.65;4.47;;;23.00;99.90;;;;;;4984381;28;20030;-71
2021/09/06 10:13:11;;;;;;;10.93;4.22;;;23.00;99.90;;;;;;5000032;28;20057;-71
2021/09/06 10:15:41;;;;;;;8.10;4.57;;;23.10;99.90;;;;;;4997621;28;20109;-71
2021/09/06 10:18:16;;;;;;;10.25;4.18;;;23.10;99.90;;;;;;4982717;28;20108;-71
2021/09/06 10:20:42;;;;;;;7.43;3.15;;;23.20;99.90;;;;;;4980293;28;20635;-72
2021/09/06 10:23:10;;;;;;;6.75;3.55;;;23.30;99.90;;;;;;4999806;28;20033;-71
2021/09/06 10:25:38;;;;;;;6.15;3.30;;;23.50;99.90;;;;;;4979531;28;20026;-71
2021/09/06 10:28:06;;;;;;;11.18;3.67;;;23.70;99.60;;;;;;5000220;28;20204;-71
2021/09/06 10:30:48;;;;;;;9.85;3.70;;;23.90;98.30;;;;;;4996978;28;20069;-72
2021/09/06 10:33:25;;;;;;;9.10;4.60;;;24.00;98.30;;;;;;4981363;28;20030;-71
2021/09/06 10:36:03;;;;;;;7.22;3.60;;;24.20;97.60;;;;;;4999463;28;20045;-71
2021/09/06 10:38:37;;;;;;;6.15;3.45;;;24.20;96.20;;;;;;4997277;28;20041;-71
2021/09/06 10:41:09;;;;;;;4.55;2.95;;;24.10;95.80;;;;;;5005137;28;20038;-71
2021/09/06 10:43:44;;;;;;;5.28;2.92;;;23.90;95.60;;;;;;4997340;28;20495;-71
2021/09/06 10:46:10;;;;;;;8.55;3.70;;;23.80;95.70;;;;;;4981342;28;20038;-71
2021/09/06 10:48:36;;;;;;;12.73;3.38;;;23.80;95.60;;;;;;4980321;28;20030;-71
2021/09/06 10:51:03;;;;;;;11.68;3.33;;;23.80;96.60;;;;;;5000191;28;20038;-71
2021/09/06 10:53:28;;;;;;;13.90;3.80;;;23.80;96.60;;;;;;4978678;28;20035;-71
2021/09/06 10:55:56;;;;;;;7.25;3.38;;;23.80;95.80;;;;;;4982371;28;20107;-71
2021/09/06 10:58:27;;;;;;;6.45;3.80;;;23.60;96.00;;;;;;4979961;28;20398;-71
2021/09/06 11:00:55;;;;;;;8.13;3.55;;;23.60;96.30;;;;;;5000032;28;20449;-69
2021/09/06 11:03:23;;;;;;;7.32;3.08;;;23.60;97.10;;;;;;4997535;28;20066;-69
2021/09/06 11:05:54;;;;;;;9.80;3.45;;;23.60;98.80;;;;;;4999529;28;20039;-68
2021/09/06 11:08:25;;;;;;;9.10;3.50;;;23.70;97.00;;;;;;4980250;28;20034;-69
2021/09/06 11:10:50;;;;;;;7.93;4.22;;;23.80;97.40;;;;;;5001677;28;20030;-68
2021/09/06 11:13:16;;;;;;;7.45;3.25;;;23.90;97.40;;;;;;4997707;28;20041;-69
2021/09/06 11:15:41;;;;;;;7.32;3.85;;;23.90;96.30;;;;;;4980710;28;20141;-70
2021/09/06 11:18:08;;;;;;;7.20;4.43;;;23.90;96.60;;;;;;4998883;28;20495;-68
2021/09/06 11:20:37;;;;;;;6.40;3.58;;;23.90;95.70;;;;;;4997863;28;20078;-69
2021/09/06 11:23:04;;;;;;;6.43;2.92;;;23.80;95.90;;;;;;4999464;28;20041;-69
2021/09/06 11:25:31;;;;;;;7.70;3.75;;;23.80;95.30;;;;;;4997154;28;20053;-68
2021/09/06 11:28:10;;;;;;;10.57;4.03;;;23.90;94.20;;;;;;5000530;28;20038;-69
2021/09/06 11:30:38;;;;;;;7.75;3.75;;;23.90;95.20;;;;;;4997701;28;20043;-68
2021/09/06 11:33:06;;;;;;;6.97;3.83;;;23.90;94.30;;;;;;5001565;28;20237;-68
2021/09/06 11:35:35;;;;;;;7.85;3.35;;;23.80;95.00;;;;;;4982862;28;20049;-69
2021/09/06 11:38:02;;;;;;;6.57;3.65;;;23.80;96.60;;;;;;5003334;28;20557;-68
2021/09/06 11:40:29;;;;;;;7.63;3.33;;;23.70;96.20;;;;;;5006878;28;20038;-68
2021/09/06 11:42:55;;;;;;;5.50;3.15;;;23.60;95.80;;;;;;4985712;28;20409;-68
2021/09/06 11:45:21;;;;;;;6.72;3.90;;;23.50;95.80;;;;;;4999530;28;20038;-68
2021/09/06 11:47:47;;;;;;;8.43;3.83;;;23.50;95.50;;;;;;5002832;28;20192;-68
2021/09/06 11:50:15;;;;;;;6.35;3.60;;;23.40;95.90;;;;;;4983902;28;20064;-68
2021/09/06 11:52:43;;;;;;;6.50;3.15;;;23.20;96.30;;;;;;5000525;28;20453;-69
2021/09/06 11:55:14;;;;;;;5.88;3.70;;;23.10;97.00;;;;;;5001555;28;20034;-69
2021/09/06 11:57:40;;;;;;;8.13;4.10;;;23.00;97.30;;;;;;5001539;28;20038;-69
2021/09/06 12:00:06;;;;;;;9.35;3.65;;;23.10;96.00;;;;;;4984667;28;20080;-69
2021/09/06 12:02:32;;;;;;;8.48;3.03;;;23.10;95.60;;;;;;4999895;28;20034;-69
2021/09/06 12:05:07;;;;;;;7.20;3.70;;;23.10;97.00;;;;;;5018927;28;20043;-69
2021/09/06 12:07:34;;;;;;;6.72;2.92;;;23.10;96.00;;;;;;4988560;28;20482;-69
2021/09/06 12:10:00;;;;;;;6.80;3.22;;;23.10;95.90;;;;;;5002072;28;20101;-68
2021/09/06 12:12:26;;;;;;;6.00;3.10;;;23.10;96.20;;;;;;5005626;28;20034;-69
2021/09/06 12:14:53;;;;;;;10.77;3.25;;;23.20;97.30;;;;;;4999999;28;20145;-69
2021/09/06 12:17:20;;;;;;;10.18;3.42;;;23.30;96.60;;;;;;5002859;28;20494;-69
2021/09/06 12:19:48;;;;;;;8.73;2.90;;;23.40;97.00;;;;;;4999986;28;20049;-68
2021/09/06 12:22:22;;;;;;;7.40;3.38;;;23.40;97.30;;;;;;5007169;28;20554;-69
2021/09/06 12:24:49;;;;;;;6.90;3.47;;;23.60;97.80;;;;;;4981713;28;20405;-69
2021/09/06 12:27:17;;;;;;;7.60;3.47;;;23.80;97.60;;;;;;5002351;28;20058;-69
2021/09/06 12:29:44;;;;;;;7.63;3.75;;;23.80;97.80;;;;;;5000037;28;20446;-69
2021/09/06 12:32:18;;;;;;;8.88;3.90;;;23.90;97.80;;;;;;5001748;28;20050;-69
2021/09/06 12:34:44;;;;;;;7.03;3.70;;;24.00;97.90;;;;;;4999813;28;20065;-69